createdAt,value
2022-08-01T00:01:45.905Z,99.90
2022-08-01T00:04:12.409Z,99.90
2022-08-01T00:06:39.001Z,99.90
2022-08-01T00:09:05.532Z,99.90
2022-08-01T00:11:32.069Z,99.90
2022-08-01T00:13:58.612Z,99.90
2022-08-01T00:16:25.176Z,99.90
2022-08-01T00:18:51.685Z,99.90
2022-08-01T00:21:18.267Z,99.90
2022-08-01T00:23:44.868Z,99.90
2022-08-01T00:26:11.489Z,99.90
2022-08-01T00:28:38.049Z,99.90
2022-08-01T00:31:04.593Z,99.90
2022-08-01T00:33:31.112Z,99.90
2022-08-01T00:35:57.651Z,99.90
2022-08-01T00:38:24.223Z,99.90
2022-08-01T00:40:50.833Z,99.90
2022-08-01T00:43:17.362Z,99.90
2022-08-01T00:45:43.854Z,99.90
2022-08-01T00:48:10.382Z,99.90
2022-08-01T00:50:36.885Z,99.90
2022-08-01T00:53:03.511Z,99.90
2022-08-01T00:55:30.120Z,99.90
2022-08-01T00:58:03.268Z,99.90
2022-08-01T01:00:32.982Z,99.90
2022-08-01T01:03:20.260Z,99.90
2022-08-01T01:05:46.813Z,99.90
2022-08-01T01:08:13.416Z,99.90
2022-08-01T01:10:39.998Z,99.90
2022-08-01T01:13:06.563Z,99.90
2022-08-01T01:15:33.161Z,99.90
2022-08-01T01:17:59.666Z,99.90
2022-08-01T01:20:26.189Z,99.90
2022-08-01T01:22:52.748Z,99.90
2022-08-01T01:25:19.343Z,99.90
2022-08-01T01:27:45.904Z,99.90
2022-08-01T01:30:12.541Z,99.90
2022-08-01T01:32:39.086Z,99.90
2022-08-01T01:35:05.661Z,99.90
2022-08-01T01:37:32.160Z,99.90
2022-08-01T01:39:58.686Z,99.90
2022-08-01T01:42:25.258Z,99.90
2022-08-01T01:44:51.792Z,99.90
2022-08-01T01:47:18.297Z,99.90
2022-08-01T01:49:44.991Z,99.90
2022-08-01T01:52:11.590Z,99.90
2022-08-01T01:54:38.900Z,99.90
2022-08-01T01:57:05.574Z,99.90
2022-08-01T01:59:32.121Z,99.90
2022-08-01T02:02:06.109Z,99.90
2022-08-01T02:04:33.272Z,99.90
2022-08-01T02:06:59.813Z,99.90
2022-08-01T02:09:26.385Z,99.90
2022-08-01T02:12:07.298Z,99.90
2022-08-01T02:14:35.518Z,99.90
2022-08-01T02:17:02.129Z,99.90
2022-08-01T02:19:28.679Z,99.90
2022-08-01T02:21:55.201Z,99.90
2022-08-01T02:24:21.771Z,99.90
2022-08-01T02:26:57.167Z,99.90
2022-08-01T02:29:23.733Z,99.90
2022-08-01T02:31:50.258Z,99.90
2022-08-01T02:34:16.834Z,99.90
2022-08-01T02:36:43.491Z,99.90
2022-08-01T02:39:09.996Z,99.90
2022-08-01T02:41:36.554Z,99.90
2022-08-01T02:44:03.113Z,99.90
2022-08-01T02:46:29.622Z,99.90
2022-08-01T02:48:56.259Z,99.90
2022-08-01T02:51:22.833Z,99.90
2022-08-01T02:53:49.365Z,99.90
2022-08-01T02:56:15.869Z,99.90
2022-08-01T02:58:42.459Z,99.90
2022-08-01T03:01:09.384Z,99.90
2022-08-01T03:03:37.072Z,99.90
2022-08-01T03:06:03.581Z,99.90
2022-08-01T03:08:30.079Z,99.90
2022-08-01T03:10:56.593Z,99.90
2022-08-01T03:13:23.106Z,99.90
2022-08-01T03:15:49.659Z,99.90
2022-08-01T03:18:16.161Z,99.90
2022-08-01T03:20:42.736Z,99.90
2022-08-01T03:23:09.244Z,99.90
2022-08-01T03:25:35.761Z,99.90
2022-08-01T03:28:02.310Z,99.90
2022-08-01T03:30:28.852Z,99.90
2022-08-01T03:32:55.442Z,99.90
2022-08-01T03:35:22.046Z,99.90
2022-08-01T03:38:14.762Z,99.90
2022-08-01T03:40:35.106Z,99.90
2022-08-01T03:43:01.607Z,99.90
2022-08-01T03:45:28.118Z,99.90
2022-08-01T03:47:54.648Z,99.90
2022-08-01T03:50:21.225Z,99.90
2022-08-01T03:52:47.788Z,99.90
2022-08-01T03:55:14.395Z,99.90
2022-08-01T03:57:40.922Z,99.90
2022-08-01T04:00:07.462Z,99.90
2022-08-01T04:02:34.069Z,99.90
2022-08-01T04:05:00.670Z,99.90
2022-08-01T04:07:27.237Z,99.90
2022-08-01T04:09:53.806Z,99.90
2022-08-01T04:12:20.382Z,99.90
2022-08-01T04:14:47.010Z,99.90
2022-08-01T04:17:13.625Z,99.90
2022-08-01T04:19:40.189Z,99.90
2022-08-01T04:22:06.895Z,99.90
2022-08-01T04:24:33.605Z,99.90
2022-08-01T04:27:00.270Z,99.90
2022-08-01T04:29:26.857Z,99.90
2022-08-01T04:31:53.633Z,99.90
2022-08-01T04:34:20.210Z,99.90
2022-08-01T04:36:47.306Z,99.90
2022-08-01T04:39:13.833Z,99.90
2022-08-01T04:41:40.384Z,99.90
2022-08-01T04:44:06.975Z,99.90
2022-08-01T04:46:33.477Z,99.90
2022-08-01T04:49:02.327Z,99.90
2022-08-01T04:51:28.968Z,99.90
2022-08-01T04:53:55.528Z,99.90
2022-08-01T04:56:22.163Z,99.90
2022-08-01T04:58:48.678Z,99.90
2022-08-01T05:01:15.278Z,99.90
2022-08-01T05:03:41.923Z,99.90
2022-08-01T05:06:08.446Z,99.90
2022-08-01T05:08:34.952Z,99.90
2022-08-01T05:11:01.464Z,99.90
2022-08-01T05:13:28.025Z,99.90
2022-08-01T05:15:54.536Z,99.90
2022-08-01T05:18:28.268Z,99.90
2022-08-01T05:20:55.219Z,99.90
2022-08-01T05:23:37.160Z,99.90
2022-08-01T05:26:08.294Z,99.90
2022-08-01T05:28:38.966Z,99.90
2022-08-01T05:31:05.498Z,99.90
2022-08-01T05:33:32.146Z,99.90
2022-08-01T05:35:58.786Z,99.90
2022-08-01T05:38:25.496Z,99.90
2022-08-01T05:40:52.323Z,99.90
2022-08-01T05:43:18.908Z,99.90
2022-08-01T05:45:45.577Z,99.90
2022-08-01T05:48:12.186Z,99.90
2022-08-01T05:50:38.705Z,99.90
2022-08-01T05:53:05.338Z,99.90
2022-08-01T05:55:34.277Z,99.90
2022-08-01T05:58:00.818Z,99.90
2022-08-01T06:00:27.340Z,99.90
2022-08-01T06:02:53.952Z,99.90
2022-08-01T06:05:20.508Z,99.90
2022-08-01T06:07:47.061Z,99.90
2022-08-01T06:10:13.612Z,99.90
2022-08-01T06:12:40.144Z,99.90
2022-08-01T06:15:06.690Z,99.90
2022-08-01T06:17:33.270Z,99.90
2022-08-01T06:19:59.873Z,99.90
2022-08-01T06:22:26.388Z,99.90
2022-08-01T06:24:52.971Z,99.90
2022-08-01T06:27:21.739Z,99.90
2022-08-01T06:29:53.591Z,99.90
2022-08-01T06:32:26.718Z,99.90
2022-08-01T06:34:53.990Z,99.90
2022-08-01T06:37:20.553Z,99.90
2022-08-01T06:39:47.132Z,99.90
2022-08-01T06:42:13.671Z,99.90
2022-08-01T06:44:40.223Z,99.90
2022-08-01T06:47:06.731Z,99.90
2022-08-01T06:49:33.486Z,99.90
2022-08-01T06:52:00.170Z,99.90
2022-08-01T06:54:26.721Z,99.90
2022-08-01T06:56:53.290Z,99.90
2022-08-01T06:59:19.809Z,99.90
2022-08-01T07:01:46.320Z,99.90
2022-08-01T07:04:12.917Z,99.90
2022-08-01T07:06:39.412Z,99.90
2022-08-01T07:09:09.592Z,99.90
2022-08-01T07:11:40.261Z,99.90
2022-08-01T07:14:06.877Z,99.90
2022-08-01T07:16:33.417Z,99.90
2022-08-01T07:18:59.930Z,99.90
2022-08-01T07:21:38.708Z,99.90
2022-08-01T07:24:09.256Z,99.90
2022-08-01T07:26:40.555Z,99.90
2022-08-01T07:29:19.497Z,99.90
2022-08-01T07:31:46.039Z,99.90
2022-08-01T07:34:12.559Z,99.90
2022-08-01T07:36:39.166Z,99.90
2022-08-01T07:39:05.682Z,99.90
2022-08-01T07:41:52.778Z,99.90
2022-08-01T07:44:18.757Z,99.90
2022-08-01T07:46:47.230Z,99.90
2022-08-01T07:49:13.810Z,99.90
2022-08-01T07:51:40.426Z,99.90
2022-08-01T07:54:07.032Z,99.90
2022-08-01T07:56:33.601Z,99.90
2022-08-01T07:59:00.154Z,99.90
2022-08-01T08:01:26.762Z,99.90
2022-08-01T08:03:53.554Z,99.90
2022-08-01T08:06:20.062Z,99.90
2022-08-01T08:08:46.567Z,99.90
2022-08-01T08:11:13.141Z,99.90
2022-08-01T08:13:39.711Z,99.90
2022-08-01T08:16:06.250Z,99.90
2022-08-01T08:18:32.750Z,99.90
2022-08-01T08:21:01.364Z,99.90
2022-08-01T08:23:42.052Z,99.90
2022-08-01T08:26:09.973Z,99.90
2022-08-01T08:28:36.461Z,99.60
2022-08-01T08:31:03.141Z,99.20
2022-08-01T08:33:29.672Z,98.70
2022-08-01T08:35:56.193Z,98.60
2022-08-01T08:38:28.422Z,98.40
2022-08-01T08:40:56.674Z,98.60
2022-08-01T08:43:23.241Z,97.40
2022-08-01T08:45:59.303Z,98.50
2022-08-01T08:48:28.252Z,97.90
2022-08-01T08:50:56.605Z,98.20
2022-08-01T08:53:23.104Z,98.30
2022-08-01T08:55:55.894Z,97.90
2022-08-01T08:58:26.384Z,98.00
2022-08-01T09:00:58.346Z,98.30
2022-08-01T09:03:24.947Z,98.70
2022-08-01T09:05:51.472Z,97.70
2022-08-01T09:08:18.082Z,98.30
2022-08-01T09:10:44.643Z,98.50
2022-08-01T09:13:11.218Z,99.00
2022-08-01T09:15:37.717Z,98.60
2022-08-01T09:18:04.229Z,97.00
2022-08-01T09:20:30.782Z,96.90
2022-08-01T09:22:57.388Z,96.90
2022-08-01T09:25:29.645Z,96.90
2022-08-01T09:28:03.334Z,96.70
2022-08-01T09:30:29.919Z,97.00
2022-08-01T09:32:56.810Z,96.30
2022-08-01T09:35:24.453Z,96.50
2022-08-01T09:37:57.959Z,95.50
2022-08-01T09:40:24.569Z,95.40
2022-08-01T09:42:51.070Z,94.40
2022-08-01T09:45:23.209Z,96.00
2022-08-01T09:47:49.980Z,93.90
2022-08-01T09:50:17.111Z,95.40
2022-08-01T09:52:43.618Z,95.20
2022-08-01T09:55:10.186Z,95.60
2022-08-01T09:57:36.717Z,93.60
2022-08-01T10:00:03.346Z,93.10
2022-08-01T10:02:29.993Z,92.40
2022-08-01T10:04:59.992Z,93.10
2022-08-01T10:07:42.764Z,92.20
2022-08-01T10:10:11.473Z,92.20
2022-08-01T10:12:38.125Z,92.90
2022-08-01T10:15:10.999Z,93.10
2022-08-01T10:17:50.040Z,91.60
2022-08-01T10:20:29.748Z,91.10
2022-08-01T10:22:57.242Z,90.90
2022-08-01T10:25:43.215Z,90.30
2022-08-01T10:28:10.263Z,89.40
2022-08-01T10:30:36.982Z,90.20
2022-08-01T10:33:03.892Z,90.70
2022-08-01T10:35:47.454Z,87.70
2022-08-01T10:38:14.567Z,87.40
2022-08-01T10:40:41.089Z,85.70
2022-08-01T10:43:07.975Z,85.70
2022-08-01T10:45:34.486Z,86.80
2022-08-01T10:48:01.233Z,84.60
2022-08-01T10:50:28.589Z,84.20
2022-08-01T10:52:55.113Z,82.20
2022-08-01T10:55:22.613Z,84.30
2022-08-01T10:57:53.240Z,85.90
2022-08-01T11:00:22.501Z,84.10
2022-08-01T11:02:49.017Z,79.10
2022-08-01T11:05:15.518Z,79.90
2022-08-01T11:07:42.139Z,80.80
2022-08-01T11:10:14.597Z,79.00
2022-08-01T11:12:41.665Z,79.50
2022-08-01T11:15:10.653Z,79.50
2022-08-01T11:17:41.846Z,78.90
2022-08-01T11:20:09.267Z,78.20
2022-08-01T11:22:35.858Z,82.30
2022-08-01T11:25:02.405Z,82.50
2022-08-01T11:27:28.926Z,80.60
2022-08-01T11:29:58.008Z,80.70
2022-08-01T11:32:26.948Z,80.90
2022-08-01T11:34:53.757Z,81.30
2022-08-01T11:37:20.264Z,79.70
2022-08-01T11:39:46.760Z,79.90
2022-08-01T11:42:15.624Z,80.30
2022-08-01T11:44:43.996Z,80.30
2022-08-01T11:47:13.406Z,82.30
2022-08-01T11:49:40.468Z,81.30
2022-08-01T11:52:07.048Z,82.50
2022-08-01T11:54:34.736Z,81.10
2022-08-01T11:57:02.518Z,80.50
2022-08-01T11:59:38.267Z,82.80
2022-08-01T12:02:08.090Z,84.10
2022-08-01T12:04:34.688Z,79.20
2022-08-01T12:07:02.682Z,79.10
2022-08-01T12:09:29.194Z,81.20
2022-08-01T12:11:55.893Z,80.80
2022-08-01T12:14:22.414Z,81.30
2022-08-01T12:16:48.974Z,77.10
2022-08-01T12:19:15.522Z,78.60
2022-08-01T12:21:42.031Z,75.20
2022-08-01T12:24:08.563Z,76.40
2022-08-01T12:26:35.082Z,72.60
2022-08-01T12:29:01.618Z,72.80
2022-08-01T12:31:28.119Z,72.80
2022-08-01T12:33:54.624Z,73.00
2022-08-01T12:36:21.230Z,73.90
2022-08-01T12:38:47.734Z,72.80
2022-08-01T12:41:14.283Z,72.50
2022-08-01T12:43:40.798Z,73.80
2022-08-01T12:46:07.298Z,73.20
2022-08-01T12:48:33.797Z,75.10
2022-08-01T12:51:00.341Z,76.00
2022-08-01T12:53:39.815Z,73.30
2022-08-01T12:56:07.836Z,72.50
2022-08-01T12:58:34.429Z,73.70
2022-08-01T13:01:01.069Z,73.40
2022-08-01T13:03:27.625Z,71.80
2022-08-01T13:05:54.158Z,69.40
2022-08-01T13:08:22.414Z,71.30
2022-08-01T13:10:48.928Z,71.30
2022-08-01T13:13:28.241Z,72.40
2022-08-01T13:15:55.358Z,74.10
2022-08-01T13:18:21.927Z,74.60
2022-08-01T13:20:50.443Z,76.90
2022-08-01T13:23:57.397Z,79.40
2022-08-01T13:26:05.840Z,79.30
2022-08-01T13:28:32.377Z,72.70
2022-08-01T13:30:58.889Z,70.90
2022-08-01T13:33:25.414Z,71.30
2022-08-01T13:35:51.934Z,69.80
2022-08-01T13:38:18.468Z,68.30
2022-08-01T13:40:44.961Z,66.70
2022-08-01T13:43:11.464Z,66.50
2022-08-01T13:45:37.998Z,69.20
2022-08-01T13:48:13.024Z,68.90
2022-08-01T13:50:53.373Z,70.20
2022-08-01T13:53:28.464Z,71.70
2022-08-01T13:55:55.009Z,74.80
2022-08-01T13:58:21.509Z,73.00
2022-08-01T14:00:48.056Z,75.40
2022-08-01T14:03:14.626Z,73.80
2022-08-01T14:05:41.154Z,72.70
2022-08-01T14:08:07.672Z,72.30
2022-08-01T14:10:34.201Z,76.60
2022-08-01T14:13:01.991Z,78.20
2022-08-01T14:15:37.694Z,77.30
2022-08-01T14:18:06.227Z,74.20
2022-08-01T14:20:32.897Z,74.00
2022-08-01T14:22:59.431Z,73.20
2022-08-01T14:26:03.046Z,71.00
2022-08-01T14:28:12.444Z,67.30
2022-08-01T14:30:38.942Z,64.10
2022-08-01T14:33:05.440Z,65.10
2022-08-01T14:36:01.829Z,61.30
2022-08-01T14:38:21.895Z,56.40
2022-08-01T14:40:58.670Z,56.20
2022-08-01T14:43:29.439Z,57.30
2022-08-01T14:45:59.164Z,58.80
2022-08-01T14:48:25.661Z,61.00
2022-08-01T14:50:52.158Z,64.00
2022-08-01T14:53:18.800Z,64.90
2022-08-01T14:55:45.310Z,64.80
2022-08-01T14:58:11.838Z,66.30
2022-08-01T15:00:38.450Z,63.80
2022-08-01T15:03:04.986Z,61.50
2022-08-01T15:05:31.579Z,62.00
2022-08-01T15:07:58.115Z,62.00
2022-08-01T15:10:24.622Z,60.70
2022-08-01T15:12:51.114Z,60.20
2022-08-01T15:15:18.825Z,58.70
2022-08-01T15:17:45.328Z,59.00
2022-08-01T15:20:11.861Z,59.20
2022-08-01T15:22:38.369Z,60.60
2022-08-01T15:25:04.887Z,59.20
2022-08-01T15:27:31.419Z,57.10
2022-08-01T15:29:57.983Z,55.40
2022-08-01T15:32:24.486Z,55.60
2022-08-01T15:34:51.055Z,55.30
2022-08-01T15:37:17.597Z,54.40
2022-08-01T15:39:44.106Z,55.50
2022-08-01T15:42:10.846Z,56.90
2022-08-01T15:44:37.356Z,57.50
2022-08-01T15:47:03.901Z,56.50
2022-08-01T15:49:30.458Z,57.70
2022-08-01T15:51:57.038Z,58.60
2022-08-01T15:54:23.566Z,59.60
2022-08-01T15:56:51.301Z,60.90
2022-08-01T15:59:17.817Z,61.40
2022-08-01T16:01:44.344Z,62.90
2022-08-01T16:04:10.921Z,62.40
2022-08-01T16:06:37.426Z,61.70
2022-08-01T16:09:03.985Z,61.80
2022-08-01T16:11:30.491Z,61.40
2022-08-01T16:13:57.004Z,60.70
2022-08-01T16:16:23.524Z,59.70
2022-08-01T16:18:53.665Z,61.90
2022-08-01T16:21:20.533Z,62.60
2022-08-01T16:23:47.029Z,61.10
2022-08-01T16:26:27.474Z,63.10
2022-08-01T16:28:54.822Z,63.50
2022-08-01T16:31:22.170Z,63.40
2022-08-01T16:34:04.388Z,64.60
2022-08-01T16:36:31.725Z,63.40
2022-08-01T16:38:58.233Z,64.00
2022-08-01T16:41:24.737Z,64.00
2022-08-01T16:43:53.676Z,62.60
2022-08-01T16:46:20.671Z,61.40
2022-08-01T16:48:47.232Z,58.70
2022-08-01T16:51:13.779Z,59.10
2022-08-01T16:53:40.282Z,57.90
2022-08-01T16:56:06.821Z,58.70
2022-08-01T16:58:33.315Z,60.00
2022-08-01T17:01:58.635Z,60.50
2022-08-01T17:03:51.568Z,61.50
2022-08-01T17:06:20.390Z,61.70
2022-08-01T17:08:48.870Z,61.10
2022-08-01T17:11:15.488Z,61.40
2022-08-01T17:13:42.003Z,62.50
2022-08-01T17:16:08.511Z,62.50
2022-08-01T17:18:35.050Z,62.90
2022-08-01T17:21:01.625Z,64.40
2022-08-01T17:23:28.123Z,63.90
2022-08-01T17:25:54.643Z,63.90
2022-08-01T17:28:21.194Z,65.10
2022-08-01T17:30:47.711Z,65.70
2022-08-01T17:33:14.232Z,65.90
2022-08-01T17:35:40.736Z,66.80
2022-08-01T17:38:07.330Z,67.40
2022-08-01T17:40:41.438Z,67.90
2022-08-01T17:43:08.027Z,67.90
2022-08-01T17:45:39.379Z,68.20
2022-08-01T17:48:16.952Z,69.00
2022-08-01T17:50:43.480Z,69.70
2022-08-01T17:53:10.054Z,70.30
2022-08-01T17:55:56.683Z,71.00
2022-08-01T17:58:33.037Z,71.60
2022-08-01T18:01:09.633Z,72.10
2022-08-01T18:03:41.008Z,72.60
2022-08-01T18:06:08.306Z,73.00
2022-08-01T18:08:35.312Z,73.50
2022-08-01T18:11:01.857Z,73.80
2022-08-01T18:13:28.454Z,74.40
2022-08-01T18:15:55.913Z,74.90
2022-08-01T18:18:33.240Z,75.50
2022-08-01T18:21:00.616Z,76.00
2022-08-01T18:23:27.129Z,76.80
2022-08-01T18:25:53.668Z,77.70
2022-08-01T18:28:30.066Z,78.30
2022-08-01T18:30:59.168Z,79.00
2022-08-01T18:33:25.702Z,80.00
2022-08-01T18:35:53.890Z,80.60
2022-08-01T18:38:20.574Z,81.50
2022-08-01T18:40:50.710Z,82.20
2022-08-01T18:43:17.329Z,83.20
2022-08-01T18:45:43.833Z,83.00
2022-08-01T18:48:10.499Z,83.60
2022-08-01T18:50:37.006Z,83.70
2022-08-01T18:53:03.505Z,84.70
2022-08-01T18:55:30.053Z,85.80
2022-08-01T18:57:56.625Z,85.80
2022-08-01T19:00:23.148Z,86.70
2022-08-01T19:02:49.658Z,87.30
2022-08-01T19:05:16.197Z,88.40
2022-08-01T19:08:06.344Z,89.40
2022-08-01T19:10:29.223Z,90.30
2022-08-01T19:12:55.947Z,90.90
2022-08-01T19:15:22.493Z,91.70
2022-08-01T19:17:49.013Z,93.10
2022-08-01T19:20:15.563Z,94.70
2022-08-01T19:22:42.094Z,95.20
2022-08-01T19:25:08.605Z,95.40
2022-08-01T19:27:35.162Z,95.10
2022-08-01T19:30:01.657Z,94.50
2022-08-01T19:32:28.155Z,94.10
2022-08-01T19:34:54.687Z,94.10
2022-08-01T19:37:25.393Z,93.80
2022-08-01T19:39:53.615Z,93.40
2022-08-01T19:42:20.134Z,93.60
2022-08-01T19:44:46.653Z,93.60
2022-08-01T19:47:13.160Z,93.90
2022-08-01T19:49:39.796Z,94.00
2022-08-01T19:52:06.381Z,94.10
2022-08-01T19:54:32.882Z,94.00
2022-08-01T19:56:59.426Z,93.80
2022-08-01T19:59:25.932Z,93.40
2022-08-01T20:01:52.429Z,93.30
2022-08-01T20:04:18.949Z,93.60
2022-08-01T20:06:45.478Z,94.40
2022-08-01T20:09:11.986Z,95.80
2022-08-01T20:11:38.493Z,95.80
2022-08-01T20:14:05.308Z,95.40
2022-08-01T20:16:31.814Z,95.30
2022-08-01T20:18:58.326Z,95.80
2022-08-01T20:21:24.853Z,96.20
2022-08-01T20:23:51.402Z,96.60
2022-08-01T20:26:18.406Z,96.70
2022-08-01T20:28:44.948Z,97.10
2022-08-01T20:31:11.449Z,96.90
2022-08-01T20:33:37.958Z,97.10
2022-08-01T20:36:04.474Z,97.30
2022-08-01T20:38:38.555Z,98.30
2022-08-01T20:41:05.142Z,99.70
2022-08-01T20:43:31.741Z,99.90
2022-08-01T20:45:58.307Z,99.90
2022-08-01T20:48:24.814Z,99.90
2022-08-01T20:50:53.815Z,99.90
2022-08-01T20:53:21.276Z,99.90
2022-08-01T20:55:47.772Z,99.90
2022-08-01T20:58:14.291Z,99.90
2022-08-01T21:00:40.895Z,99.90
2022-08-01T21:03:07.466Z,99.90
2022-08-01T21:05:34.010Z,99.90
2022-08-01T21:08:00.513Z,99.90
2022-08-01T21:10:27.014Z,99.90
2022-08-01T21:12:53.559Z,99.90
2022-08-01T21:15:20.126Z,99.90
2022-08-01T21:17:46.631Z,99.90
2022-08-01T21:20:13.149Z,99.90
2022-08-01T21:22:39.674Z,99.90
2022-08-01T21:25:06.192Z,99.90
2022-08-01T21:27:34.113Z,99.90
2022-08-01T21:30:00.887Z,99.90
2022-08-01T21:32:27.466Z,99.90
2022-08-01T21:34:55.958Z,99.90
2022-08-01T21:37:22.489Z,99.90
2022-08-01T21:39:48.998Z,99.90
2022-08-01T21:42:18.903Z,99.90
2022-08-01T21:44:45.890Z,99.90
2022-08-01T21:47:12.485Z,99.90
2022-08-01T21:49:39.042Z,99.90
2022-08-01T21:52:08.812Z,99.90
2022-08-01T21:54:35.593Z,99.90
2022-08-01T21:57:02.108Z,99.90
2022-08-01T21:59:28.649Z,99.90
2022-08-01T22:01:55.285Z,99.90
2022-08-01T22:04:21.865Z,99.90
2022-08-01T22:06:48.399Z,99.90
2022-08-01T22:09:14.942Z,99.90
2022-08-01T22:12:01.309Z,99.90
2022-08-01T22:14:27.981Z,99.90
2022-08-01T22:16:54.495Z,99.90
2022-08-01T22:19:43.751Z,99.90
2022-08-01T22:22:45.323Z,99.90
2022-08-01T22:24:54.141Z,99.90
2022-08-01T22:27:20.643Z,99.90
2022-08-01T22:29:47.197Z,99.90
2022-08-01T22:32:13.747Z,99.90
2022-08-01T22:34:40.276Z,99.90
2022-08-01T22:37:06.794Z,99.90
2022-08-01T22:39:41.458Z,99.90
2022-08-01T22:42:07.967Z,99.90
2022-08-01T22:44:34.466Z,99.90
2022-08-01T22:47:01.012Z,99.90
2022-08-01T22:49:27.554Z,99.90
2022-08-01T22:51:55.192Z,99.90
2022-08-01T22:54:22.345Z,99.90
2022-08-01T22:56:48.843Z,99.90
2022-08-01T22:59:15.394Z,99.90
2022-08-01T23:01:41.966Z,99.90
2022-08-01T23:04:14.578Z,99.90
2022-08-01T23:06:41.094Z,99.90
2022-08-01T23:09:07.676Z,99.90
2022-08-01T23:11:34.175Z,99.90
2022-08-01T23:14:00.673Z,99.90
2022-08-01T23:16:27.210Z,99.90
2022-08-01T23:18:53.762Z,99.90
2022-08-01T23:21:20.317Z,99.90
2022-08-01T23:23:46.857Z,99.90
2022-08-01T23:26:13.361Z,99.90
2022-08-01T23:28:42.072Z,99.90
2022-08-01T23:31:08.612Z,99.90
2022-08-01T23:33:35.144Z,99.90
2022-08-01T23:36:01.646Z,99.90
2022-08-01T23:38:28.338Z,99.90
2022-08-01T23:40:54.849Z,99.90
2022-08-01T23:43:21.364Z,99.90
2022-08-01T23:46:02.603Z,99.90
2022-08-01T23:48:31.349Z,99.90
2022-08-01T23:50:57.856Z,99.90
2022-08-01T23:53:24.366Z,99.90
2022-08-01T23:55:57.347Z,99.90
2022-08-01T23:58:24.097Z,99.90
